Time,TemperatureF,DewpointF,PressureIn,WindDirection,WindDirectionDegrees,WindSpeedMPH,WindSpeedGustMPH,Humidity,HourlyPrecipIn,Conditions,Clouds,dailyrainin,SoftwareType,DateUTC
2013-12-13 00:00:00,46.0,26.0,30.37,NE,40,18.0,21.0,45,-99.99,,,-99.99,,2013-12-13 06:00:00,
2013-12-13 00:42:00,46.0,26.0,30.37,NE,40,18.0,21.0,45,-99.99,,,-99.99,,2013-12-13 06:42:00,
2013-12-13 00:52:00,46.0,26.0,30.37,NE,40,18.0,21.0,45,-99.99,,,-99.99,,2013-12-13 06:52:00,
2013-12-13 01:00:00,45.0,26.0,30.35,NE,40,17.0,20.0,45,-99.99,,,-99.99,,2013-12-13 07:00:00,
2013-12-13 01:42:00,45.0,26.0,30.35,NE,40,17.0,20.0,45,-99.99,,,-99.99,,2013-12-13 07:42:00,
2013-12-13 01:52:00,45.0,26.0,30.35,NE,40,17.0,20.0,45,-99.99,,,-99.99,,2013-12-13 07:52:00,
2013-12-13 02:00:00,45.0,27.0,30.33,NE,50,18.0,21.0,48,-99.99,,,-99.99,,2013-12-13 08:00:00,
2013-12-13 02:42:00,45.0,27.0,30.33,NE,50,18.0,21.0,48,-99.99,,,-99.99,,2013-12-13 08:42:00,
2013-12-13 02:52:00,45.0,27.0,30.33,NE,50,18.0,21.0,48,-99.99,,,-99.99,,2013-12-13 08:52:00,
2013-12-13 03:00:00,45.0,29.0,30.32,NE,50,18.0,21.0,52,-99.99,,,-99.99,,2013-12-13 09:00:00,
2013-12-13 03:43:00,45.0,29.0,30.32,NE,50,18.0,21.0,52,-99.99,,,-99.99,,2013-12-13 09:43:00,
2013-12-13 03:53:00,45.0,29.0,30.32,NE,50,18.0,21.0,52,-99.99,,,-99.99,,2013-12-13 09:53:00,
2013-12-13 04:00:00,45.0,30.0,30.30,ENE,60,20.0,22.0,55,-99.99,,,-99.99,,2013-12-13 10:00:00,
2013-12-13 04:42:00,45.0,30.0,30.30,ENE,60,20.0,22.0,55,-99.99,,,-99.99,,2013-12-13 10:42:00,
2013-12-13 04:53:00,45.0,30.0,30.30,ENE,60,20.0,22.0,55,-99.99,,,-99.99,,2013-12-13 10:53:00,
2013-12-13 05:00:00,45.0,31.0,30.30,ENE,70,18.0,20.0,56,-99.99,,,-99.99,,2013-12-13 11:00:00,
2013-12-13 05:42:00,45.0,31.0,30.30,ENE,70,18.0,20.0,56,-99.99,,,-99.99,,2013-12-13 11:42:00,
2013-12-13 05:53:00,45.0,31.0,30.30,ENE,70,18.0,20.0,56,-99.99,,,-99.99,,2013-12-13 11:53:00,
2013-12-13 06:00:00,45.0,31.0,30.31,ENE,70,18.0,20.0,57,-99.99,,,-99.99,,2013-12-13 12:00:00,
2013-12-13 06:42:00,45.0,31.0,30.31,ENE,70,18.0,20.0,57,-99.99,,,-99.99,,2013-12-13 12:42:00,
2013-12-13 06:52:00,45.0,31.0,30.31,ENE,70,18.0,20.0,57,-99.99,,,-99.99,,2013-12-13 12:52:00,
2013-12-13 07:00:00,45.0,34.0,30.31,NE,50,14.0,16.0,64,-99.99,,,-99.99,,2013-12-13 13:00:00,
2013-12-13 07:42:00,45.0,34.0,30.31,NE,50,14.0,16.0,64,-99.99,,,-99.99,,2013-12-13 13:42:00,
2013-12-13 07:52:00,45.0,34.0,30.31,NE,50,14.0,16.0,64,-99.99,,,-99.99,,2013-12-13 13:52:00,
2013-12-13 08:00:00,45.0,35.0,30.30,ENE,60,15.0,16.0,67,-99.99,,,-99.99,,2013-12-13 14:00:00,
2013-12-13 08:42:00,45.0,35.0,30.30,ENE,60,15.0,16.0,67,-99.99,,,-99.99,,2013-12-13 14:42:00,
2013-12-13 08:52:00,45.0,35.0,30.30,ENE,60,15.0,16.0,67,-99.99,,,-99.99,,2013-12-13 14:52:00,
2013-12-13 09:00:00,46.0,38.0,30.30,ENE,60,14.0,15.0,71,-99.99,,,-99.99,,2013-12-13 15:00:00,
2013-12-13 09:43:00,46.0,38.0,30.30,ENE,60,14.0,15.0,71,-99.99,,,-99.99,,2013-12-13 15:43:00,
2013-12-13 09:53:00,46.0,38.0,30.30,ENE,60,14.0,15.0,71,-99.99,,,-99.99,,2013-12-13 15:53:00,
2013-12-13 10:00:00,48.0,41.0,30.29,East,80,11.0,14.0,75,-99.99,,,-99.99,,2013-12-13 16:00:00,
2013-12-13 10:43:00,48.0,41.0,30.29,East,80,11.0,14.0,75,-99.99,,,-99.99,,2013-12-13 16:43:00,
2013-12-13 10:53:00,48.0,41.0,30.29,East,80,11.0,14.0,75,-99.99,,,-99.99,,2013-12-13 16:53:00,
2013-12-13 11:00:00,51.0,44.0,30.24,ENE,60,11.0,13.0,76,-99.99,,,-99.99,,2013-12-13 17:00:00,
2013-12-13 11:42:00,51.0,44.0,30.24,ENE,60,11.0,13.0,76,-99.99,,,-99.99,,2013-12-13 17:42:00,
2013-12-13 11:52:00,51.0,44.0,30.24,ENE,60,11.0,13.0,76,-99.99,,,-99.99,,2013-12-13 17:52:00,
2013-12-13 12:00:00,54.0,47.0,30.21,ENE,70,5.0,5.0,77,-99.99,,,-99.99,,2013-12-13 18:00:00,
2013-12-13 12:42:00,54.0,47.0,30.21,ENE,70,5.0,5.0,77,-99.99,,,-99.99,,2013-12-13 18:42:00,
2013-12-13 12:52:00,54.0,47.0,30.21,ENE,70,5.0,5.0,77,-99.99,,,-99.99,,2013-12-13 18:52:00,
2013-12-13 13:00:00,56.0,50.0,30.19,NNE,20,5.0,5.0,79,-99.99,,,-99.99,,2013-12-13 19:00:00,
2013-12-13 13:42:00,56.0,50.0,30.19,NNE,20,5.0,5.0,79,-99.99,,,-99.99,,2013-12-13 19:42:00,
2013-12-13 13:52:00,56.0,50.0,30.19,NNE,20,5.0,5.0,79,-99.99,,,-99.99,,2013-12-13 19:52:00,
2013-12-13 14:00:00,54.0,50.0,30.14,NNE,30,7.0,8.0,85,-99.99,,,-99.99,,2013-12-13 20:00:00,
2013-12-13 14:42:00,54.0,50.0,30.14,NNE,30,7.0,8.0,85,-99.99,,,-99.99,,2013-12-13 20:42:00,
2013-12-13 14:52:00,54.0,50.0,30.14,NNE,30,7.0,8.0,85,-99.99,,,-99.99,,2013-12-13 20:52:00,
2013-12-13 15:00:00,55.0,51.0,30.12,NNE,30,7.0,7.0,84,-99.99,,,-99.99,,2013-12-13 21:00:00,
2013-12-13 15:43:00,55.0,51.0,30.12,NNE,30,7.0,7.0,84,-99.99,,,-99.99,,2013-12-13 21:43:00,
2013-12-13 15:53:00,55.0,51.0,30.12,NNE,30,7.0,7.0,84,-99.99,,,-99.99,,2013-12-13 21:53:00,
2013-12-13 16:00:00,58.0,52.0,30.12,ENE,60,10.0,11.0,81,-99.99,,,-99.99,,2013-12-13 22:00:00,
2013-12-13 16:42:00,58.0,52.0,30.12,ENE,60,10.0,11.0,81,-99.99,,,-99.99,,2013-12-13 22:42:00,
2013-12-13 16:53:00,58.0,52.0,30.12,ENE,60,10.0,11.0,81,-99.99,,,-99.99,,2013-12-13 22:53:00,
2013-12-13 17:00:00,58.0,52.0,30.12,ENE,60,11.0,13.0,82,-99.99,,,-99.99,,2013-12-13 23:00:00,
2013-12-13 17:42:00,58.0,52.0,30.12,ENE,60,11.0,13.0,82,-99.99,,,-99.99,,2013-12-13 23:42:00,
2013-12-13 17:52:00,58.0,52.0,30.12,ENE,60,11.0,13.0,82,-99.99,,,-99.99,,2013-12-13 23:52:00,
2013-12-13 18:00:00,57.0,52.0,30.11,ENE,60,14.0,16.0,82,-99.99,,,-99.99,,2013-12-14 00:00:00,
2013-12-13 18:42:00,57.0,52.0,30.11,ENE,60,14.0,16.0,82,-99.99,,,-99.99,,2013-12-14 00:42:00,
2013-12-13 18:52:00,57.0,52.0,30.11,ENE,60,14.0,16.0,82,-99.99,,,-99.99,,2013-12-14 00:52:00,
2013-12-13 19:00:00,56.0,51.0,30.09,ENE,70,17.0,20.0,81,-99.99,,,-99.99,,2013-12-14 01:00:00,
2013-12-13 19:42:00,56.0,51.0,30.09,ENE,70,17.0,20.0,81,-99.99,,,-99.99,,2013-12-14 01:42:00,
2013-12-13 19:52:00,56.0,51.0,30.09,ENE,70,17.0,20.0,81,-99.99,,,-99.99,,2013-12-14 01:52:00,
2013-12-13 20:00:00,56.0,51.0,30.09,East,80,16.0,18.0,83,-99.99,,,-99.99,,2013-12-14 02:00:00,
2013-12-13 20:42:00,56.0,51.0,30.09,East,80,16.0,18.0,83,-99.99,,,-99.99,,2013-12-14 02:42:00,
2013-12-13 20:52:00,56.0,51.0,30.09,East,80,16.0,18.0,83,-99.99,,,-99.99,,2013-12-14 02:52:00,
2013-12-13 21:00:00,56.0,51.0,30.08,ENE,70,16.0,17.0,83,-99.99,,,-99.99,,2013-12-14 03:00:00,
2013-12-13 21:43:00,56.0,51.0,30.08,ENE,70,16.0,17.0,83,-99.99,,,-99.99,,2013-12-14 03:43:00,
2013-12-13 21:54:00,56.0,51.0,30.08,ENE,70,16.0,17.0,83,-99.99,,,-99.99,,2013-12-14 03:54:00,
2013-12-13 22:00:00,56.0,52.0,30.06,ENE,60,14.0,15.0,86,-99.99,,,-99.99,,2013-12-14 04:00:00,
2013-12-13 22:42:00,56.0,52.0,30.06,ENE,60,14.0,15.0,86,-99.99,,,-99.99,,2013-12-14 04:42:00,
2013-12-13 22:53:00,56.0,52.0,30.06,ENE,60,14.0,15.0,86,-99.99,,,-99.99,,2013-12-14 04:53:00,
2013-12-13 23:00:00,56.0,53.0,30.05,NNE,30,6.0,8.0,89,-99.99,,,-99.99,,2013-12-14 05:00:00,
2013-12-13 23:42:00,56.0,53.0,30.05,NNE,30,6.0,8.0,89,-99.99,,,-99.99,,2013-12-14 05:42:00,
2013-12-13 23:52:00,56.0,53.0,30.05,NNE,30,6.0,8.0,89,-99.99,,,-99.99,,2013-12-14 05:52:00,